createdAt,value
2019-05-07T00:02:17.839Z,6.30
2019-05-07T00:04:46.761Z,6.30
2019-05-07T00:07:15.642Z,6.20
2019-05-07T00:09:44.572Z,6.30
2019-05-07T00:12:13.440Z,6.30
2019-05-07T00:14:42.990Z,6.20
2019-05-07T00:17:13.140Z,6.30
2019-05-07T00:19:43.203Z,6.20
2019-05-07T00:22:12.640Z,6.30
2019-05-07T00:24:42.652Z,6.20
2019-05-07T00:27:13.091Z,6.10
2019-05-07T00:29:42.943Z,6.00
2019-05-07T00:32:12.274Z,6.00
2019-05-07T00:34:42.889Z,5.90
2019-05-07T00:37:13.582Z,6.00
2019-05-07T00:39:50.187Z,6.00
2019-05-07T00:42:22.036Z,6.00
2019-05-07T00:45:13.214Z,5.90
2019-05-07T00:47:29.301Z,5.90
2019-05-07T00:49:59.763Z,5.80
2019-05-07T00:52:28.786Z,5.80
2019-05-07T00:54:57.675Z,5.70
2019-05-07T00:57:26.624Z,5.90
2019-05-07T00:59:55.522Z,5.80
2019-05-07T01:02:24.435Z,5.90
2019-05-07T01:04:53.424Z,5.90
2019-05-07T01:07:23.037Z,5.80
2019-05-07T01:09:52.516Z,5.80
2019-05-07T01:12:22.248Z,5.80
2019-05-07T01:14:52.826Z,5.80
2019-05-07T01:17:22.692Z,5.80
2019-05-07T01:19:53.318Z,5.80
2019-05-07T01:22:22.466Z,5.80
2019-05-07T01:24:52.655Z,5.80
2019-05-07T01:27:22.635Z,5.70
2019-05-07T01:29:52.862Z,5.70
2019-05-07T01:32:23.534Z,5.70
2019-05-07T01:35:03.170Z,5.60
2019-05-07T01:37:32.594Z,5.50
2019-05-07T01:40:03.064Z,5.60
2019-05-07T01:42:32.794Z,5.40
2019-05-07T01:45:02.698Z,5.50
2019-05-07T01:47:33.140Z,5.50
2019-05-07T01:50:03.065Z,5.50
2019-05-07T01:52:33.203Z,5.40
2019-05-07T01:55:03.231Z,5.30
2019-05-07T01:57:32.745Z,5.20
2019-05-07T02:00:02.559Z,5.20
2019-05-07T02:02:39.403Z,5.20
2019-05-07T02:05:13.007Z,5.10
2019-05-07T02:07:43.475Z,5.10
2019-05-07T02:10:26.196Z,5.00
2019-05-07T02:12:55.073Z,5.00
2019-05-07T02:15:24.012Z,4.90
2019-05-07T02:17:52.881Z,5.00
2019-05-07T02:20:22.518Z,4.90
2019-05-07T02:22:53.188Z,4.80
2019-05-07T02:25:22.306Z,4.90
2019-05-07T02:27:52.822Z,4.70
2019-05-07T02:30:23.913Z,4.60
2019-05-07T02:32:53.949Z,4.70
2019-05-07T02:35:23.655Z,4.80
2019-05-07T02:37:56.789Z,4.60
2019-05-07T02:40:29.368Z,4.60
2019-05-07T02:42:58.293Z,4.60
2019-05-07T02:45:28.744Z,4.60
2019-05-07T02:47:57.678Z,4.60
2019-05-07T02:50:34.324Z,4.70
2019-05-07T02:53:07.847Z,4.70
2019-05-07T02:55:43.520Z,4.60
2019-05-07T02:58:13.762Z,4.50
2019-05-07T03:00:43.454Z,4.60
2019-05-07T03:03:13.924Z,4.50
2019-05-07T03:05:43.521Z,4.50
2019-05-07T03:08:13.389Z,4.40
2019-05-07T03:10:43.443Z,4.40
2019-05-07T03:13:13.696Z,4.50
2019-05-07T03:15:43.793Z,4.60
2019-05-07T03:18:13.803Z,4.50
2019-05-07T03:20:45.144Z,4.50
2019-05-07T03:23:15.657Z,4.50
2019-05-07T03:25:49.097Z,4.50
2019-05-07T03:28:18.952Z,4.50
2019-05-07T03:31:07.826Z,4.50
2019-05-07T03:33:47.947Z,4.40
2019-05-07T03:36:17.852Z,4.50
2019-05-07T03:38:46.998Z,4.50
2019-05-07T03:41:15.875Z,4.40
2019-05-07T03:43:45.024Z,4.40
2019-05-07T03:46:15.473Z,4.40
2019-05-07T03:48:45.602Z,4.50
2019-05-07T03:51:14.480Z,4.50
2019-05-07T03:53:43.934Z,4.30
2019-05-07T03:56:13.414Z,4.20
2019-05-07T03:58:43.395Z,4.10
2019-05-07T04:01:13.470Z,4.10
2019-05-07T04:03:44.615Z,4.10
2019-05-07T04:06:13.448Z,4.30
2019-05-07T04:08:43.373Z,4.40
2019-05-07T04:11:13.991Z,4.40
2019-05-07T04:13:44.003Z,4.50
2019-05-07T04:16:13.888Z,4.40
2019-05-07T04:18:43.673Z,4.40
2019-05-07T04:21:13.948Z,4.40
2019-05-07T04:23:43.859Z,4.60
2019-05-07T04:26:33.671Z,4.70
2019-05-07T04:29:05.788Z,4.50
2019-05-07T04:31:35.298Z,4.80
2019-05-07T04:34:05.877Z,5.00
2019-05-07T04:36:35.855Z,5.00
2019-05-07T04:39:07.848Z,5.00
2019-05-07T04:41:36.881Z,5.10
2019-05-07T04:44:05.758Z,5.30
2019-05-07T04:46:34.688Z,5.40
2019-05-07T04:49:03.978Z,5.50
2019-05-07T04:51:37.855Z,5.50
2019-05-07T04:54:06.745Z,5.50
2019-05-07T04:56:35.673Z,5.60
2019-05-07T04:59:04.544Z,5.70
2019-05-07T05:01:35.056Z,5.70
2019-05-07T05:04:20.636Z,5.90
2019-05-07T05:06:34.532Z,6.00
2019-05-07T05:09:03.579Z,6.00
2019-05-07T05:11:33.523Z,6.10
2019-05-07T05:14:07.004Z,6.10
2019-05-07T05:16:33.452Z,6.20
2019-05-07T05:19:02.763Z,6.30
2019-05-07T05:21:45.380Z,6.30
2019-05-07T05:24:15.989Z,6.40
2019-05-07T05:26:44.913Z,6.60
2019-05-07T05:29:13.807Z,6.70
2019-05-07T05:31:42.718Z,6.70
2019-05-07T05:34:13.022Z,6.70
2019-05-07T05:36:42.635Z,6.70
2019-05-07T05:39:13.108Z,6.90
2019-05-07T05:41:44.299Z,6.90
2019-05-07T05:44:17.482Z,7.00
2019-05-07T05:46:45.550Z,6.90
2019-05-07T05:49:14.431Z,7.00
2019-05-07T05:51:44.980Z,7.10
2019-05-07T05:54:24.796Z,7.30
2019-05-07T05:57:12.291Z,7.50
2019-05-07T05:59:59.168Z,7.20
2019-05-07T15:27:57.483Z,17.10
2019-05-07T18:35:52.663Z,12.00
2019-05-07T18:38:22.366Z,11.90
2019-05-07T18:40:52.813Z,11.80
2019-05-07T18:43:22.657Z,11.80
2019-05-07T18:45:51.873Z,11.60
2019-05-07T18:48:22.412Z,11.60
2019-05-07T18:50:52.141Z,11.60
2019-05-07T18:53:22.691Z,11.60
2019-05-07T18:55:51.832Z,11.50
2019-05-07T18:58:22.473Z,11.40
2019-05-07T19:00:53.000Z,11.30
2019-05-07T19:03:21.938Z,11.20
2019-05-07T19:05:51.980Z,11.20
2019-05-07T19:08:22.844Z,11.20
2019-05-07T19:10:52.190Z,11.20
2019-05-07T19:13:22.242Z,11.10
2019-05-07T19:15:52.972Z,11.00
2019-05-07T19:18:22.864Z,11.00
2019-05-07T19:20:53.002Z,10.90
2019-05-07T19:23:22.469Z,10.90
2019-05-07T19:25:52.323Z,10.90
2019-05-07T19:28:22.497Z,10.80
2019-05-07T19:30:52.739Z,10.80
2019-05-07T19:33:26.798Z,10.70
2019-05-07T19:35:53.021Z,10.70
2019-05-07T19:38:22.021Z,10.70
2019-05-07T19:40:52.825Z,10.70
2019-05-07T19:43:21.497Z,10.60
2019-05-07T19:46:12.115Z,10.60
2019-05-07T19:48:40.342Z,10.50
2019-05-07T19:51:09.275Z,10.60
2019-05-07T19:53:38.223Z,10.50
2019-05-07T19:56:11.720Z,10.40
2019-05-07T19:58:41.881Z,10.40
2019-05-07T20:01:12.465Z,10.40
2019-05-07T20:03:43.326Z,10.40
2019-05-07T20:06:12.824Z,10.30
2019-05-07T20:11:33.895Z,10.20
2019-05-07T20:14:02.797Z,10.20
2019-05-07T20:16:32.584Z,10.30
2019-05-07T20:19:02.187Z,10.30
2019-05-07T20:21:32.302Z,10.30
2019-05-07T20:24:01.924Z,10.20
2019-05-07T20:26:32.636Z,10.20
2019-05-07T20:29:03.010Z,10.20
2019-05-07T20:31:33.753Z,10.30
2019-05-07T20:34:03.010Z,10.30
2019-05-07T20:36:32.687Z,10.20
2019-05-07T20:39:02.311Z,10.20
2019-05-07T20:41:32.907Z,10.20
2019-05-07T20:44:02.942Z,10.10
2019-05-07T20:46:33.066Z,10.10
2019-05-07T20:49:02.811Z,10.10
2019-05-07T20:51:32.653Z,10.00
2019-05-07T20:54:06.054Z,9.90
2019-05-07T20:56:35.661Z,9.80
2019-05-07T20:59:04.574Z,9.70
2019-05-07T21:01:33.458Z,9.70
2019-05-07T21:04:02.388Z,9.70
2019-05-07T21:06:32.344Z,9.70
2019-05-07T21:09:01.495Z,9.70
2019-05-07T21:11:32.308Z,9.70
2019-05-07T21:14:03.081Z,9.80
2019-05-07T21:16:32.844Z,9.80
2019-05-07T21:19:02.172Z,9.70
2019-05-07T21:21:32.703Z,9.60
2019-05-07T21:24:02.236Z,9.50
2019-05-07T21:26:32.624Z,9.50
2019-05-07T21:29:03.094Z,9.50
2019-05-07T21:31:32.389Z,9.50
2019-05-07T21:34:03.149Z,9.40
2019-05-07T21:36:32.369Z,9.40
2019-05-07T21:39:02.265Z,9.40
2019-05-07T21:41:33.509Z,9.30
2019-05-07T21:44:01.996Z,9.30
2019-05-07T21:46:32.881Z,9.20
2019-05-07T21:49:02.598Z,9.10
2019-05-07T21:51:31.695Z,9.00
2019-05-07T21:54:03.696Z,8.90
2019-05-07T21:56:52.257Z,8.90
2019-05-07T21:59:22.648Z,8.90
2019-05-07T22:01:53.154Z,8.90
2019-05-07T22:04:22.048Z,8.90
2019-05-07T22:06:52.404Z,8.80
2019-05-07T22:09:22.328Z,8.80
2019-05-07T22:11:53.528Z,8.70
2019-05-07T22:14:22.367Z,8.70
2019-05-07T22:16:54.573Z,8.60
2019-05-07T22:19:23.207Z,8.50
2019-05-07T22:21:52.386Z,8.50
2019-05-07T22:24:22.411Z,8.50
2019-05-07T22:26:51.550Z,8.40
2019-05-07T22:29:22.565Z,8.40
2019-05-07T22:32:04.737Z,8.30
2019-05-07T22:34:37.948Z,8.30
2019-05-07T22:37:06.022Z,8.30
2019-05-07T22:39:34.923Z,8.20
2019-05-07T22:42:03.852Z,8.20
2019-05-07T22:44:32.739Z,8.10
2019-05-07T22:47:03.233Z,8.00
2019-05-07T22:49:33.354Z,8.10
2019-05-07T22:52:02.487Z,8.10
2019-05-07T22:54:31.934Z,8.10
2019-05-07T22:57:03.111Z,8.00
2019-05-07T22:59:32.826Z,7.90
2019-05-07T23:02:03.033Z,8.00
2019-05-07T23:04:32.646Z,8.00
2019-05-07T23:07:02.326Z,7.90
2019-05-07T23:09:31.318Z,7.80
2019-05-07T23:12:02.192Z,7.70
2019-05-07T23:14:32.847Z,7.90
2019-05-07T23:17:02.230Z,8.10
2019-05-07T23:19:32.727Z,8.40
2019-05-07T23:22:02.767Z,9.50
2019-05-07T23:24:31.989Z,7.50
2019-05-07T23:27:00.935Z,7.50
2019-05-07T23:29:29.868Z,8.30
2019-05-07T23:31:58.751Z,7.30
